createdAt,value
2023-01-21T00:01:03.753Z,100245.74
2023-01-21T00:03:30.748Z,100251.05
2023-01-21T00:06:00.566Z,100251.73
2023-01-21T00:08:27.433Z,100247.34
2023-01-21T00:10:54.877Z,100248.87
2023-01-21T00:13:22.034Z,100242.23
2023-01-21T00:15:48.924Z,100245.88
2023-01-21T00:18:15.840Z,100250.41
2023-01-21T00:20:42.991Z,100240.94
2023-01-21T00:23:11.030Z,100237.98
2023-01-21T00:25:38.019Z,100244.03
2023-01-21T00:28:05.093Z,100240.17
2023-01-21T00:30:32.207Z,100244.58
2023-01-21T00:32:59.219Z,100256.77
2023-01-21T00:35:26.122Z,100247.79
2023-01-21T00:37:53.080Z,100250.39
2023-01-21T00:40:19.995Z,100244.04
2023-01-21T00:42:46.979Z,100238.41
2023-01-21T00:45:14.025Z,100235.27
2023-01-21T00:47:40.943Z,100236.11
2023-01-21T00:50:09.932Z,100238.79
2023-01-21T00:52:36.924Z,100239.13
2023-01-21T00:55:04.880Z,100229.52
2023-01-21T00:57:31.855Z,100228.35
2023-01-21T00:59:59.106Z,100224.92
2023-01-21T01:02:26.051Z,100229.70
2023-01-21T01:04:53.009Z,100242.70
2023-01-21T01:07:19.885Z,100242.00
2023-01-21T01:09:46.911Z,100237.65
2023-01-21T01:12:13.858Z,100237.09
2023-01-21T01:14:40.914Z,100227.60
2023-01-21T01:17:07.833Z,100229.35
2023-01-21T01:19:34.811Z,100227.91
2023-01-21T01:22:01.761Z,100220.86
2023-01-21T01:24:28.814Z,100227.84
2023-01-21T01:26:55.764Z,100223.05
2023-01-21T01:29:22.716Z,100211.00
2023-01-21T01:31:49.692Z,100210.17
2023-01-21T01:34:16.669Z,100207.67
2023-01-21T01:36:43.703Z,100214.10
2023-01-21T01:39:10.622Z,100209.23
2023-01-21T01:41:37.573Z,100208.05
2023-01-21T01:44:06.183Z,100221.64
2023-01-21T01:46:35.350Z,100231.02
2023-01-21T01:49:08.442Z,100233.20
2023-01-21T01:51:54.876Z,100229.45
2023-01-21T01:54:29.673Z,100237.60
2023-01-21T01:56:58.058Z,100235.16
2023-01-21T01:59:25.009Z,100228.70
2023-01-21T02:01:52.001Z,100221.57
2023-01-21T10:07:53.740Z,100600.64
2023-01-21T10:10:25.189Z,100593.15
2023-01-21T10:13:29.697Z,100598.80
2023-01-21T10:15:56.618Z,100605.38
2023-01-21T10:18:30.805Z,100594.84
2023-01-21T10:21:03.754Z,100593.55
2023-01-21T10:23:42.848Z,100593.46
2023-01-21T10:26:12.366Z,100597.34
2023-01-21T10:28:44.779Z,100600.51
2023-01-21T10:31:15.620Z,100589.09
2023-01-21T10:33:42.714Z,100591.73
2023-01-21T10:36:27.988Z,100594.64
2023-01-21T10:39:16.936Z,100599.58
2023-01-21T10:41:43.802Z,100593.45
2023-01-21T10:44:44.796Z,100597.56
2023-01-21T10:47:20.539Z,100602.38
2023-01-21T10:50:25.693Z,100602.23
2023-01-21T10:52:57.543Z,100609.73
2023-01-21T10:55:46.187Z,100604.23
2023-01-21T10:58:47.627Z,100607.69
2023-01-21T11:01:30.552Z,100604.23
2023-01-21T11:03:59.668Z,100604.98
2023-01-21T11:06:26.593Z,100601.30
2023-01-21T11:08:58.790Z,100603.64
2023-01-21T11:11:30.728Z,100602.34
2023-01-21T11:13:57.783Z,100605.15
2023-01-21T11:16:45.540Z,100601.89
2023-01-21T11:19:32.889Z,100606.00
2023-01-21T11:22:18.245Z,100610.02
2023-01-21T11:24:49.228Z,100621.86
2023-01-21T11:27:34.944Z,100621.00
2023-01-21T11:30:02.507Z,100619.85
2023-01-21T11:32:30.241Z,100617.78
2023-01-21T11:35:15.973Z,100619.34
2023-01-21T11:37:42.877Z,100626.04
2023-01-21T11:40:24.937Z,100621.95
2023-01-21T11:42:53.614Z,100622.99
2023-01-21T11:45:33.603Z,100618.38
2023-01-21T11:48:01.177Z,100619.16
2023-01-21T11:50:34.840Z,100626.70
2023-01-21T11:53:08.057Z,100632.48
2023-01-21T11:55:42.789Z,100633.17
2023-01-21T11:58:20.382Z,100640.96
2023-01-21T12:00:48.293Z,100646.91
2023-01-21T12:03:18.582Z,100650.94
2023-01-21T12:05:48.522Z,100659.98
2023-01-21T12:08:21.184Z,100666.45
2023-01-21T12:10:48.121Z,100668.53
2023-01-21T12:13:25.109Z,100671.34
2023-01-21T12:16:04.448Z,100678.52
2023-01-21T12:18:46.641Z,100687.44
2023-01-21T12:21:28.230Z,100694.01
2023-01-21T12:24:20.044Z,100695.34
2023-01-21T12:27:26.015Z,100704.08
2023-01-21T12:30:05.010Z,100712.27
2023-01-21T12:32:39.446Z,100716.17
2023-01-21T12:35:26.847Z,100717.77
2023-01-21T12:38:06.880Z,100729.67
2023-01-21T12:40:39.833Z,100722.43
2023-01-21T12:43:49.510Z,100730.40
2023-01-21T12:46:49.299Z,100731.83
2023-01-21T12:49:42.250Z,100730.45
2023-01-21T12:52:14.733Z,100733.10
2023-01-21T12:55:08.591Z,100738.83
2023-01-21T12:57:39.127Z,100738.17
2023-01-21T13:00:23.777Z,100739.02
2023-01-21T13:03:08.777Z,100741.69
2023-01-21T13:05:37.630Z,100747.35
2023-01-21T13:08:22.694Z,100747.24
2023-01-21T13:10:53.382Z,100754.08
2023-01-21T13:13:34.712Z,100758.59
2023-01-21T13:16:05.606Z,100761.36
2023-01-21T13:18:37.957Z,100757.84
2023-01-21T13:21:12.876Z,100754.32
2023-01-21T13:23:39.806Z,100757.73
2023-01-21T13:26:14.331Z,100759.66
2023-01-21T13:29:06.967Z,100768.68
2023-01-21T13:32:08.894Z,100762.10
2023-01-21T13:34:50.555Z,100766.77
2023-01-21T13:37:49.897Z,100764.73
2023-01-21T13:40:33.522Z,100764.41
2023-01-21T13:43:29.308Z,100774.96
2023-01-21T13:45:56.256Z,100772.52
2023-01-21T13:48:41.956Z,100775.93
2023-01-21T13:51:34.295Z,100775.27
2023-01-21T13:54:16.787Z,100780.25
2023-01-21T13:57:03.490Z,100779.42
2023-01-21T13:59:34.378Z,100780.70
2023-01-21T14:02:11.490Z,100782.04
2023-01-21T14:05:07.815Z,100783.41
2023-01-21T22:02:50.061Z,101213.13
